Time;durP1;ratioP1;P1;durP2;ratioP2;P2;SDS_P1;SDS_P2;PMS_P1;PMS_P2;Temp;Humidity;BMP_temperature;BMP_pressure;BME280_temperature;BME280_humidity;BME280_pressure;Samples;Min_cycle;Max_cycle;Signal;HPM_P1;HPM_P2
2023/06/01 00:01:04;;;;;;;;;;;;;;;26.13;81.67;99436.41;5002037;28;19960;-44
2023/06/01 00:03:29;;;;;;;;;;;;;;;26.15;82.27;99443.22;5001716;28;19928;-44
2023/06/01 00:05:55;;;;;;;;;;;;;;;26.03;83.59;99452.25;5002044;28;19917;-44
2023/06/01 00:08:22;;;;;;;;;;;;;;;25.85;83.82;99439.69;5002294;28;19949;-44
2023/06/01 00:10:47;;;;;;;;;;;;;;;24.98;86.34;99466.53;5002061;28;19929;-45
2023/06/01 00:13:12;;;;;;;;;;;;;;;25.18;86.20;99446.41;5000721;28;19918;-44
2023/06/01 00:15:38;;;;;;;;;;;;;;;24.00;88.06;99470.16;5000199;28;19953;-44
2023/06/01 00:18:05;;;;;;;;;;;;;;;23.76;90.51;99478.19;4999523;28;19956;-44
2023/06/01 00:20:31;;;;;;;;;;;;;;;24.93;87.78;99442.38;5002387;28;19921;-44
2023/06/01 00:22:58;;;;;;;;;;;;;;;24.13;87.75;99453.34;5001646;28;20426;-44
2023/06/01 00:25:23;;;;;;;;;;;;;;;24.56;86.41;99440.19;5001533;28;20394;-45
2023/06/01 00:27:48;;;;;;;;;;;;;;;24.36;88.03;99448.88;5001071;28;20001;-44
2023/06/01 00:30:13;;;;;;;;;;;;;;;24.85;85.89;99434.25;5001018;28;20010;-44
2023/06/01 00:32:39;;;;;;;;;;;;;;;25.09;84.35;99420.81;5001882;28;19929;-44
2023/06/01 00:35:04;;;;;;;;;;;;;;;24.93;85.05;99429.19;4999692;28;19917;-45
2023/06/01 00:37:29;;;;;;;;;;;;;;;25.12;85.47;99438.16;5001034;28;19936;-43
2023/06/01 00:39:55;;;;;;;;;;;;;;;24.92;84.65;99435.41;4999710;28;19917;-44
2023/06/01 00:42:20;;;;;;;;;;;;;;;25.02;85.18;99435.47;5001823;28;19921;-44
2023/06/01 00:44:45;;;;;;;;;;;;;;;24.56;85.48;99439.34;5000255;28;19956;-44
2023/06/01 00:47:10;;;;;;;;;;;;;;;24.14;86.68;99444.53;5001141;28;19948;-44
2023/06/01 00:49:35;;;;;;;;;;;;;;;23.50;88.42;99461.00;5000057;28;19917;-44
2023/06/01 00:52:01;;;;;;;;;;;;;;;24.51;87.36;99437.09;4999725;28;19921;-44
2023/06/01 00:54:26;;;;;;;;;;;;;;;24.76;87.66;99441.13;4999127;28;19940;-44
2023/06/01 00:56:51;;;;;;;;;;;;;;;24.90;84.85;99416.25;5001215;28;19918;-43
2023/06/01 00:59:17;;;;;;;;;;;;;;;24.74;85.92;99423.78;5000996;28;19926;-44
2023/06/01 01:01:43;;;;;;;;;;;;;;;24.77;83.84;99405.09;5000462;28;19962;-43
2023/06/01 01:04:10;;;;;;;;;;;;;;;24.71;85.00;99413.53;5000959;28;20016;-43
2023/06/01 01:06:50;;;;;;;;;;;;;;;24.70;85.33;99425.88;5001327;28;20004;-43
2023/06/01 01:09:29;;;;;;;;;;;;;;;24.73;86.12;99425.59;5001005;28;19927;-43
2023/06/01 01:12:04;;;;;;;;;;;;;;;24.66;84.47;99413.09;4999528;28;19924;-44
2023/06/01 01:14:36;;;;;;;;;;;;;;;24.55;84.94;99424.50;4999170;28;19974;-45
2023/06/01 01:17:02;;;;;;;;;;;;;;;24.45;85.06;99429.69;4998908;28;19917;-44
2023/06/01 01:19:27;;;;;;;;;;;;;;;24.31;83.40;99416.81;4999943;28;19933;-44
2023/06/01 01:22:31;;;;;;;;;;;;;;;24.33;85.62;99428.88;5001234;28;19940;-44
2023/06/01 01:24:56;;;;;;;;;;;;;;;24.17;86.11;99434.56;4998314;28;19949;-44
2023/06/01 01:27:24;;;;;;;;;;;;;;;24.13;85.03;99422.63;4997258;28;20010;-44
2023/06/01 01:29:49;;;;;;;;;;;;;;;24.09;86.33;99431.75;4997338;28;20100;-44
2023/06/01 01:32:15;;;;;;;;;;;;;;;24.14;85.69;99426.94;5000406;28;20808;-45
2023/06/01 01:34:40;;;;;;;;;;;;;;;23.98;84.59;99419.44;4998941;28;19928;-44
2023/06/01 01:37:05;;;;;;;;;;;;;;;24.19;85.45;99430.00;5000273;28;20000;-44
2023/06/01 01:39:30;;;;;;;;;;;;;;;24.10;85.83;99432.56;4999035;28;19922;-45
2023/06/01 01:41:56;;;;;;;;;;;;;;;23.99;85.52;99420.28;4993525;28;19920;-44
2023/06/01 01:44:21;;;;;;;;;;;;;;;23.95;86.08;99434.66;4990134;28;19941;-44
2023/06/01 01:46:56;;;;;;;;;;;;;;;23.85;88.42;99445.06;4991236;28;19921;-44
2023/06/01 01:49:25;;;;;;;;;;;;;;;23.86;86.89;99436.22;4982559;28;20405;-44
2023/06/01 01:51:52;;;;;;;;;;;;;;;23.85;86.92;99431.09;4984834;28;19991;-44
2023/06/01 01:54:17;;;;;;;;;;;;;;;23.79;86.56;99429.78;4986809;28;19918;-44
2023/06/01 01:56:42;;;;;;;;;;;;;;;23.80;87.43;99442.81;4987378;28;20089;-44
2023/06/01 01:59:08;;;;;;;;;;;;;;;23.78;86.21;99423.69;4994700;28;19972;-44
2023/06/01 02:01:33;;;;;;;;;;;;;;;23.86;86.38;99430.97;4978390;28;19918;-44
2023/06/01 02:04:02;;;;;;;;;;;;;;;23.58;86.77;99437.53;4987882;28;19967;-44
2023/06/01 02:06:27;;;;;;;;;;;;;;;23.52;86.97;99432.78;4985877;28;19918;-44
2023/06/01 02:08:52;;;;;;;;;;;;;;;23.64;88.50;99437.06;4983458;28;19917;-44
2023/06/01 02:11:18;;;;;;;;;;;;;;;23.54;88.90;99431.72;4995453;28;19922;-44
2023/06/01 02:13:43;;;;;;;;;;;;;;;23.41;88.07;99435.44;4980106;28;19941;-44
2023/06/01 02:16:08;;;;;;;;;;;;;;;23.29;89.29;99443.31;4989268;28;19927;-43
2023/06/01 02:18:35;;;;;;;;;;;;;;;22.22;94.61;99488.09;4989651;28;19929;-44
2023/06/01 02:21:00;;;;;;;;;;;;;;;21.81;95.72;99494.50;4985627;28;19949;-43
2023/06/01 02:23:25;;;;;;;;;;;;;;;22.22;98.14;99496.81;4988097;28;19964;-43
2023/06/01 02:25:51;;;;;;;;;;;;;;;21.25;99.95;99507.94;4985701;28;19921;-43
2023/06/01 02:28:17;;;;;;;;;;;;;;;21.77;100.00;99493.88;4990126;28;20291;-43
2023/06/01 02:30:42;;;;;;;;;;;;;;;22.43;97.76;99470.78;4988181;28;19936;-43
2023/06/01 02:33:07;;;;;;;;;;;;;;;21.76;97.70;99480.84;4989815;28;20703;-43
2023/06/01 02:35:32;;;;;;;;;;;;;;;22.46;97.82;99467.91;4994214;28;19913;-43
2023/06/01 02:37:57;;;;;;;;;;;;;;;20.19;100.00;99522.72;4983869;28;19921;-43
2023/06/01 02:40:23;;;;;;;;;;;;;;;20.57;100.00;99517.69;4991407;28;19928;-43
2023/06/01 02:42:48;;;;;;;;;;;;;;;20.89;100.00;99496.38;4986004;28;20295;-43
2023/06/01 02:45:13;;;;;;;;;;;;;;;21.13;100.00;99499.13;4978706;28;20399;-44
2023/06/01 02:47:38;;;;;;;;;;;;;;;19.79;100.00;99530.41;4991647;28;20394;-44
2023/06/01 02:50:05;;;;;;;;;;;;;;;19.50;100.00;99527.81;4984359;28;19980;-43
2023/06/01 02:52:31;;;;;;;;;;;;;;;20.30;100.00;99508.94;4983440;28;20427;-45
2023/06/01 02:54:56;;;;;;;;;;;;;;;21.18;100.00;99491.78;4988806;28;20379;-43
2023/06/01 02:57:21;;;;;;;;;;;;;;;20.30;100.00;99501.94;4985655;28;19925;-44
2023/06/01 02:59:46;;;;;;;;;;;;;;;20.04;100.00;99514.88;4994246;28;19922;-44
2023/06/01 03:02:12;;;;;;;;;;;;;;;21.62;100.00;99472.22;4977726;28;19918;-43
2023/06/01 03:04:37;;;;;;;;;;;;;;;20.86;100.00;99502.66;4997001;28;19925;-43
2023/06/01 03:07:03;;;;;;;;;;;;;;;19.74;100.00;99516.81;4999545;28;19918;-44
2023/06/01 03:09:28;;;;;;;;;;;;;;;19.09;100.00;99525.03;4986808;28;20055;-43
2023/06/01 03:11:53;;;;;;;;;;;;;;;18.90;100.00;99527.88;4984625;28;20350;-43
2023/06/01 03:14:18;;;;;;;;;;;;;;;20.29;100.00;99491.56;4987609;28;19929;-43
2023/06/01 03:16:44;;;;;;;;;;;;;;;19.61;100.00;99521.91;4987714;28;19925;-44
2023/06/01 03:19:09;;;;;;;;;;;;;;;21.13;100.00;99469.47;4994126;28;19975;-43
2023/06/01 03:21:35;;;;;;;;;;;;;;;18.88;100.00;99521.91;4986960;28;19960;-44
2023/06/01 03:24:00;;;;;;;;;;;;;;;18.36;100.00;99520.47;4996106;28;19967;-43
2023/06/01 03:26:26;;;;;;;;;;;;;;;19.76;100.00;99497.47;4987438;28;20378;-43
2023/06/01 03:28:52;;;;;;;;;;;;;;;17.66;100.00;99545.94;4985415;28;20362;-43
2023/06/01 03:31:18;;;;;;;;;;;;;;;18.67;100.00;99527.38;4992559;28;20270;-43
2023/06/01 03:33:43;;;;;;;;;;;;;;;17.66;100.00;99535.53;4987283;28;19926;-43
2023/06/01 03:36:09;;;;;;;;;;;;;;;18.22;100.00;99517.78;4991899;28;19922;-43
2023/06/01 03:38:34;;;;;;;;;;;;;;;18.30;100.00;99521.63;4997942;28;19975;-43
2023/06/01 03:41:00;;;;;;;;;;;;;;;19.73;100.00;99494.19;4988353;28;19921;-43
2023/06/01 03:43:25;;;;;;;;;;;;;;;19.43;100.00;99490.75;4993444;28;19924;-43
2023/06/01 03:45:51;;;;;;;;;;;;;;;17.84;100.00;99544.16;4983069;28;19918;-43
2023/06/01 03:48:16;;;;;;;;;;;;;;;20.15;100.00;99492.47;4987823;28;20333;-44
2023/06/01 03:50:41;;;;;;;;;;;;;;;19.82;100.00;99484.03;4991422;28;19928;-43
2023/06/01 03:53:06;;;;;;;;;;;;;;;19.15;100.00;99511.63;4989414;28;19976;-43
2023/06/01 03:55:32;;;;;;;;;;;;;;;18.12;100.00;99535.69;4995316;28;19948;-43
2023/06/01 03:57:57;;;;;;;;;;;;;;;17.66;100.00;99545.94;4991232;28;20003;-43
2023/06/01 04:00:23;;;;;;;;;;;;;;;18.47;100.00;99523.28;4984470;28;20379;-43
2023/06/01 04:02:56;;;;;;;;;;;;;;;17.94;100.00;99533.16;4990456;28;19921;-43
2023/06/01 04:05:22;;;;;;;;;;;;;;;18.28;100.00;99536.53;4990254;28;19979;-43
2023/06/01 04:07:48;;;;;;;;;;;;;;;18.41;100.00;99531.47;4997816;28;19929;-43
2023/06/01 04:10:14;;;;;;;;;;;;;;;17.63;100.00;99556.50;4982848;28;19921;-43
2023/06/01 04:12:43;;;;;;;;;;;;;;;17.30;100.00;99554.72;4987208;28;19944;-43
2023/06/01 04:15:12;;;;;;;;;;;;;;;18.95;100.00;99528.44;4989620;28;19940;-43
2023/06/01 04:17:37;;;;;;;;;;;;;;;16.60;100.00;99562.44;4985400;28;19987;-43
2023/06/01 04:20:06;;;;;;;;;;;;;;;19.21;100.00;99519.09;4992949;28;20386;-43
2023/06/01 04:22:31;;;;;;;;;;;;;;;19.71;100.00;99483.88;4988817;28;20393;-43
2023/06/01 04:24:56;;;;;;;;;;;;;;;20.50;100.00;99471.84;4993158;28;20036;-43
2023/06/01 04:27:24;;;;;;;;;;;;;;;21.18;100.00;99455.13;4994289;28;19918;-43
2023/06/01 04:29:50;;;;;;;;;;;;;;;20.63;100.00;99458.84;4983015;28;20681;-43
2023/06/01 04:32:21;;;;;;;;;;;;;;;20.83;100.00;99458.34;4989207;28;19922;-43
2023/06/01 04:34:48;;;;;;;;;;;;;;;19.77;100.00;99485.25;4989953;28;19914;-43
2023/06/01 04:37:14;;;;;;;;;;;;;;;20.19;100.00;99465.19;4992037;28;19984;-43
2023/06/01 04:39:41;;;;;;;;;;;;;;;18.80;100.00;99519.75;4996475;28;20014;-43
2023/06/01 04:42:08;;;;;;;;;;;;;;;18.52;100.00;99533.47;4986029;28;19974;-43
2023/06/01 04:44:33;;;;;;;;;;;;;;;19.60;100.00;99505.38;4996537;28;20720;-43
2023/06/01 04:47:03;;;;;;;;;;;;;;;21.00;100.00;99467.69;4987140;28;19913;-43
2023/06/01 04:49:28;;;;;;;;;;;;;;;19.78;100.00;99497.41;4991325;28;19997;-43
2023/06/01 04:51:53;;;;;;;;;;;;;;;19.73;100.00;99502.03;4993386;28;19918;-43
2023/06/01 04:54:19;;;;;;;;;;;;;;;19.11;100.00;99513.59;4983198;28;19921;-43
2023/06/01 04:56:44;;;;;;;;;;;;;;;17.94;100.00;99540.13;4995589;28;19913;-43
2023/06/01 04:59:09;;;;;;;;;;;;;;;19.68;100.00;99506.69;4984337;28;19964;-43
2023/06/01 05:01:37;;;;;;;;;;;;;;;19.67;100.00;99494.56;4980458;28;19918;-43
2023/06/01 05:04:03;;;;;;;;;;;;;;;20.82;100.00;99480.25;4982760;28;20125;-43
2023/06/01 05:06:28;;;;;;;;;;;;;;;19.18;100.00;99514.03;4979796;28;20318;-43
2023/06/01 05:08:53;;;;;;;;;;;;;;;18.30;100.00;99524.25;4994846;28;19921;-43
2023/06/01 05:11:19;;;;;;;;;;;;;;;19.56;100.00;99488.22;4983274;28;19922;-43
2023/06/01 05:13:44;;;;;;;;;;;;;;;20.39;100.00;99476.94;4986762;28;19948;-43
2023/06/01 05:16:09;;;;;;;;;;;;;;;20.57;100.00;99461.88;4987959;28;19929;-43
2023/06/01 05:18:35;;;;;;;;;;;;;;;19.12;100.00;99511.81;4984979;28;19926;-43
2023/06/01 05:21:00;;;;;;;;;;;;;;;19.39;100.00;99501.47;4997141;28;19930;-43
2023/06/01 05:23:26;;;;;;;;;;;;;;;20.20;100.00;99472.06;4980011;28;19924;-43
2023/06/01 05:25:51;;;;;;;;;;;;;;;20.96;100.00;99447.91;4987146;28;20381;-43
2023/06/01 05:28:17;;;;;;;;;;;;;;;21.12;100.00;99447.69;4995394;28;19925;-43
2023/06/01 05:30:42;;;;;;;;;;;;;;;21.00;100.00;99445.91;4986295;28;19924;-42
2023/06/01 05:33:07;;;;;;;;;;;;;;;19.07;100.00;99506.84;4983664;28;20013;-42
2023/06/01 05:35:33;;;;;;;;;;;;;;;21.05;100.00;99454.28;4984043;28;19921;-42
2023/06/01 05:37:59;;;;;;;;;;;;;;;19.44;100.00;99488.97;4982949;28;20405;-42
2023/06/01 05:40:24;;;;;;;;;;;;;;;18.41;100.00;99523.66;4990334;28;20366;-42
2023/06/01 05:42:50;;;;;;;;;;;;;;;17.27;100.00;99560.94;4983886;28;19949;-42
2023/06/01 05:45:15;;;;;;;;;;;;;;;19.34;100.00;99513.97;4989565;28;19964;-42
2023/06/01 05:47:40;;;;;;;;;;;;;;;16.54;100.00;99569.72;4992290;28;20004;-42
2023/06/01 05:50:06;;;;;;;;;;;;;;;15.69;100.00;99568.31;4986365;28;20204;-42
2023/06/01 05:52:31;;;;;;;;;;;;;;;18.62;100.00;99532.03;4988221;28;20381;-42
2023/06/01 05:54:56;;;;;;;;;;;;;;;17.93;100.00;99534.09;4984009;28;19928;-42
2023/06/01 05:57:21;;;;;;;;;;;;;;;17.96;100.00;99539.13;4989702;28;19924;-42
2023/06/01 05:59:47;;;;;;;;;;;;;;;17.27;100.00;99541.88;4983731;28;19921;-42
2023/06/01 06:02:15;;;;;;;;;;;;;;;16.69;100.00;99563.75;4980553;28;19944;-42
2023/06/01 06:04:40;;;;;;;;;;;;;;;16.78;100.00;99554.69;4994440;28;20016;-42
2023/06/01 06:07:05;;;;;;;;;;;;;;;17.66;100.00;99544.16;4981283;28;19917;-42
2023/06/01 06:09:31;;;;;;;;;;;;;;;18.34;100.00;99523.16;4985099;28;19944;-42
2023/06/01 06:11:56;;;;;;;;;;;;;;;19.28;100.00;99514.34;4989841;28;19924;-42
2023/06/01 06:14:21;;;;;;;;;;;;;;;18.98;100.00;99518.66;4980339;28;20371;-42
2023/06/01 06:16:47;;;;;;;;;;;;;;;19.21;100.00;99514.69;4987884;28;19929;-42
2023/06/01 06:19:12;;;;;;;;;;;;;;;17.84;100.00;99544.16;4983329;28;19921;-42
2023/06/01 06:21:37;;;;;;;;;;;;;;;16.14;100.00;99567.19;4988364;28;19925;-42
2023/06/01 06:24:03;;;;;;;;;;;;;;;17.19;100.00;99564.84;4978789;28;19964;-42
2023/06/01 06:26:28;;;;;;;;;;;;;;;18.29;100.00;99550.41;4980762;28;19973;-42
2023/06/01 06:28:54;;;;;;;;;;;;;;;17.10;100.00;99553.94;4979218;28;19917;-42
2023/06/01 06:31:19;;;;;;;;;;;;;;;16.52;100.00;99570.63;4982291;28;19932;-42
2023/06/01 06:33:45;;;;;;;;;;;;;;;16.01;100.00;99579.91;4980454;28;19917;-42
2023/06/01 06:36:10;;;;;;;;;;;;;;;15.77;100.00;99586.19;4979737;28;19926;-42
2023/06/01 06:38:35;;;;;;;;;;;;;;;16.60;100.00;99575.44;4985759;28;19918;-42
2023/06/01 06:41:00;;;;;;;;;;;;;;;17.49;100.00;99570.22;4986337;28;19921;-42
2023/06/01 06:43:26;;;;;;;;;;;;;;;17.96;100.00;99565.19;4986739;28;19918;-42
2023/06/01 06:45:51;;;;;;;;;;;;;;;19.08;100.00;99539.00;4982952;28;19922;-42
2023/06/01 06:48:16;;;;;;;;;;;;;;;16.43;100.00;99578.84;4988243;28;20016;-42
2023/06/01 06:50:44;;;;;;;;;;;;;;;15.74;100.00;99584.59;4987939;28;20389;-42
2023/06/01 06:53:09;;;;;;;;;;;;;;;16.77;100.00;99587.66;4993457;28;19921;-42
2023/06/01 06:55:34;;;;;;;;;;;;;;;16.29;100.00;99589.06;4990582;28;19960;-42
2023/06/01 06:58:00;;;;;;;;;;;;;;;18.99;100.00;99566.50;4993707;28;20115;-42
2023/06/01 07:00:26;;;;;;;;;;;;;;;20.42;100.00;99502.94;4989071;28;19925;-42
2023/06/01 07:02:51;;;;;;;;;;;;;;;18.69;100.00;99533.38;4989147;28;19918;-42
2023/06/01 07:05:16;;;;;;;;;;;;;;;19.48;100.00;99521.81;4989399;28;19917;-42
2023/06/01 07:07:42;;;;;;;;;;;;;;;19.13;100.00;99526.53;4983144;28;20004;-42
2023/06/01 07:10:07;;;;;;;;;;;;;;;18.65;100.00;99531.84;4991751;28;19979;-42
2023/06/01 07:12:33;;;;;;;;;;;;;;;20.63;100.00;99500.72;4987159;28;19917;-42
2023/06/01 07:14:58;;;;;;;;;;;;;;;20.38;100.00;99496.22;4992055;28;19921;-42
2023/06/01 07:17:24;;;;;;;;;;;;;;;20.46;100.00;99497.41;4992925;28;20275;-42
2023/06/01 07:19:49;;;;;;;;;;;;;;;21.03;100.00;99466.66;4989806;28;20289;-42
2023/06/01 07:22:15;;;;;;;;;;;;;;;20.08;100.00;99499.03;4987066;28;20396;-42
2023/06/01 07:24:40;;;;;;;;;;;;;;;20.66;100.00;99495.28;4991029;28;20391;-42
2023/06/01 07:27:07;;;;;;;;;;;;;;;20.65;100.00;99486.59;4989611;28;20277;-42
2023/06/01 07:29:32;;;;;;;;;;;;;;;18.68;100.00;99531.69;4988223;28;19959;-42
2023/06/01 07:31:58;;;;;;;;;;;;;;;17.37;100.00;99568.28;4994651;28;19961;-41
2023/06/01 07:34:24;;;;;;;;;;;;;;;19.65;100.00;99519.00;4988901;28;19917;-42
2023/06/01 07:36:50;;;;;;;;;;;;;;;21.44;100.00;99470.84;4995737;28;20297;-42
2023/06/01 07:39:15;;;;;;;;;;;;;;;20.18;100.00;99474.78;4985615;28;19925;-42
2023/06/01 07:41:40;;;;;;;;;;;;;;;20.83;100.00;99481.91;4982011;28;19921;-42
2023/06/01 07:44:07;;;;;;;;;;;;;;;19.50;100.00;99498.19;4995367;28;19921;-42
2023/06/01 07:46:32;;;;;;;;;;;;;;;18.03;100.00;99575.28;4982651;28;19913;-42
2023/06/01 07:48:58;;;;;;;;;;;;;;;18.91;100.00;99527.78;4991304;28;20444;-42
2023/06/01 07:51:24;;;;;;;;;;;;;;;18.05;100.00;99578.66;4985379;28;19918;-41
2023/06/01 07:53:49;;;;;;;;;;;;;;;19.21;100.00;99530.38;4989838;28;19917;-42
2023/06/01 07:56:15;;;;;;;;;;;;;;;18.94;100.00;99542.44;4995023;28;19924;-41
2023/06/01 07:58:40;;;;;;;;;;;;;;;20.46;100.00;99489.56;4983408;28;20353;-41
2023/06/01 08:01:05;;;;;;;;;;;;;;;18.68;100.00;99538.66;4983387;28;19917;-41
2023/06/01 08:03:33;;;;;;;;;;;;;;;19.55;100.00;99523.13;4995618;28;19964;-42
2023/06/01 08:05:59;;;;;;;;;;;;;;;21.59;100.00;99469.78;4989495;28;20028;-41
2023/06/01 08:08:24;;;;;;;;;;;;;;;18.91;100.00;99512.13;4993156;28;20291;-41
2023/06/01 08:10:50;;;;;;;;;;;;;;;20.41;100.00;99506.47;4981978;28;19918;-41
2023/06/01 08:13:15;;;;;;;;;;;;;;;19.36;100.00;99496.44;4989044;28;19922;-41
2023/06/01 08:15:42;;;;;;;;;;;;;;;20.22;100.00;99491.13;4983429;28;20262;-41
2023/06/01 08:18:07;;;;;;;;;;;;;;;21.49;100.00;99448.63;4988375;28;19913;-42
2023/06/01 08:20:33;;;;;;;;;;;;;;;19.37;100.00;99519.03;4995639;28;19917;-41
2023/06/01 08:22:58;;;;;;;;;;;;;;;19.15;100.00;99520.28;4984208;28;19922;-41
2023/06/01 08:25:23;;;;;;;;;;;;;;;18.60;100.00;99521.69;4989640;28;20306;-41
2023/06/01 08:27:49;;;;;;;;;;;;;;;19.08;100.00;99507.69;4992406;28;20538;-41
2023/06/01 08:30:15;;;;;;;;;;;;;;;19.25;100.00;99527.56;4987958;28;19917;-41
2023/06/01 08:32:40;;;;;;;;;;;;;;;20.15;100.00;99516.00;4993596;28;19921;-41
2023/06/01 08:35:06;;;;;;;;;;;;;;;22.12;100.00;99441.53;4988876;28;19956;-42
2023/06/01 08:37:31;;;;;;;;;;;;;;;21.83;97.47;99434.94;4985013;28;19918;-41
2023/06/01 08:39:57;;;;;;;;;;;;;;;20.52;98.80;99446.44;4988160;28;19937;-43
2023/06/01 08:42:26;;;;;;;;;;;;;;;17.70;100.00;99563.09;4984803;28;20396;-42
2023/06/01 08:44:53;;;;;;;;;;;;;;;18.17;100.00;99551.91;4994732;28;20293;-42
2023/06/01 08:47:18;;;;;;;;;;;;;;;17.97;100.00;99560.81;4992104;28;20381;-42
2023/06/01 08:49:45;;;;;;;;;;;;;;;18.31;100.00;99554.59;4987341;28;20255;-41
2023/06/01 08:52:14;;;;;;;;;;;;;;;20.87;100.00;99474.72;4994025;28;19968;-41
2023/06/01 08:54:39;;;;;;;;;;;;;;;20.12;100.00;99482.22;4982914;28;19922;-41
2023/06/01 08:57:06;;;;;;;;;;;;;;;20.53;100.00;99431.59;4996764;28;19971;-41
2023/06/01 08:59:32;;;;;;;;;;;;;;;19.90;100.00;99473.09;4977840;28;20371;-42
2023/06/01 09:01:57;;;;;;;;;;;;;;;20.85;100.00;99455.66;4986154;28;19968;-41
2023/06/01 09:04:22;;;;;;;;;;;;;;;18.86;100.00;99497.66;4984675;28;20013;-42
2023/06/01 09:06:48;;;;;;;;;;;;;;;20.77;100.00;99455.31;4982860;28;19928;-41
2023/06/01 09:09:14;;;;;;;;;;;;;;;19.15;100.00;99498.56;4980524;28;19917;-42
2023/06/01 09:11:39;;;;;;;;;;;;;;;20.23;100.00;99445.72;4983115;28;19942;-42
2023/06/01 09:14:21;;;;;;;;;;;;;;;21.86;100.00;99424.22;4990765;28;19917;-41
2023/06/01 09:16:46;;;;;;;;;;;;;;;20.25;100.00;99454.31;4986529;28;20024;-42
2023/06/01 09:19:12;;;;;;;;;;;;;;;20.65;100.00;99462.22;4983773;28;20714;-42
2023/06/01 09:21:37;;;;;;;;;;;;;;;19.28;100.00;99501.28;4985766;28;20016;-42
2023/06/01 09:24:21;;;;;;;;;;;;;;;18.33;100.00;99536.28;4982822;28;19957;-42
2023/06/01 09:26:50;;;;;;;;;;;;;;;19.61;100.00;99496.63;4980860;28;19917;-42
2023/06/01 09:29:16;;;;;;;;;;;;;;;19.57;100.00;99474.25;4987064;28;19918;-42
2023/06/01 09:31:45;;;;;;;;;;;;;;;20.53;100.00;99447.28;4986202;28;20294;-42
2023/06/01 09:34:20;;;;;;;;;;;;;;;23.46;100.00;99383.31;4985563;28;20069;-41
2023/06/01 09:36:49;;;;;;;;;;;;;;;25.29;87.79;99347.94;4982541;28;19913;-42
2023/06/01 09:39:18;;;;;;;;;;;;;;;23.59;92.32;99394.53;4985232;28;19918;-42
2023/06/01 09:41:53;;;;;;;;;;;;;;;21.29;98.86;99436.03;4982789;28;20270;-42
2023/06/01 09:44:25;;;;;;;;;;;;;;;21.96;100.00;99430.44;4978851;28;19926;-42
2023/06/01 09:46:54;;;;;;;;;;;;;;;20.96;100.00;99445.28;4984390;28;20016;-42
2023/06/01 09:49:24;;;;;;;;;;;;;;;24.51;94.67;99352.81;4981319;28;20513;-42
2023/06/01 09:51:49;;;;;;;;;;;;;;;22.92;96.41;99396.22;4980117;28;20386;-42
2023/06/01 09:54:21;;;;;;;;;;;;;;;21.31;94.77;99405.34;4982983;28;19928;-42
2023/06/01 09:56:46;;;;;;;;;;;;;;;21.58;100.00;99452.38;4981819;28;19929;-42
2023/06/01 09:59:12;;;;;;;;;;;;;;;22.40;99.94;99397.53;4981113;28;19930;-42
2023/06/01 10:01:37;;;;;;;;;;;;;;;24.78;91.70;99349.66;4984976;28;19976;-42
2023/06/01 10:04:02;;;;;;;;;;;;;;;23.80;93.20;99366.53;4981959;28;19917;-42
2023/06/01 10:06:28;;;;;;;;;;;;;;;22.85;97.01;99412.53;4985452;28;19986;-42
2023/06/01 10:08:54;;;;;;;;;;;;;;;21.96;100.00;99433.06;4983101;28;19924;-42
2023/06/01 10:11:19;;;;;;;;;;;;;;;21.69;100.00;99438.50;4990233;28;19922;-42
2023/06/01 10:13:44;;;;;;;;;;;;;;;22.36;100.00;99401.34;4990603;28;20008;-42
2023/06/01 10:16:12;;;;;;;;;;;;;;;21.92;100.00;99410.66;4990903;28;19924;-42
2023/06/01 10:18:37;;;;;;;;;;;;;;;20.61;100.00;99461.56;4988146;28;19917;-42
2023/06/01 10:21:02;;;;;;;;;;;;;;;20.67;100.00;99455.94;4995327;28;19967;-42
2023/06/01 10:23:28;;;;;;;;;;;;;;;19.29;100.00;99469.00;4987095;28;19929;-42
2023/06/01 10:25:53;;;;;;;;;;;;;;;21.07;100.00;99457.63;4988427;28;21557;-42
2023/06/01 10:28:18;;;;;;;;;;;;;;;20.03;100.00;99450.47;4983141;28;20618;-42
2023/06/01 10:30:44;;;;;;;;;;;;;;;22.18;100.00;99418.41;4988335;28;19922;-42
2023/06/01 10:33:10;;;;;;;;;;;;;;;20.98;100.00;99426.84;4988094;28;19924;-42
2023/06/01 10:35:35;;;;;;;;;;;;;;;23.28;100.00;99367.22;4992005;28;19917;-42
2023/06/01 10:38:06;;;;;;;;;;;;;;;23.90;100.00;99373.66;4987397;28;19972;-42
2023/06/01 10:40:34;;;;;;;;;;;;;;;22.13;100.00;99413.50;4987905;28;19926;-42
2023/06/01 10:42:59;;;;;;;;;;;;;;;20.42;100.00;99448.81;4992882;28;19918;-42
2023/06/01 10:45:34;;;;;;;;;;;;;;;21.28;100.00;99435.22;4984399;28;19929;-42
2023/06/01 10:47:59;;;;;;;;;;;;;;;23.47;100.00;99387.59;4982167;28;19922;-42
2023/06/01 10:50:25;;;;;;;;;;;;;;;24.09;100.00;99373.84;4986809;28;19944;-42
2023/06/01 10:52:51;;;;;;;;;;;;;;;25.20;92.41;99336.41;4994948;28;19936;-42
2023/06/01 10:55:16;;;;;;;;;;;;;;;20.98;100.00;99437.31;4991847;28;19922;-42
2023/06/01 10:57:45;;;;;;;;;;;;;;;20.76;100.00;99433.53;4984360;28;19922;-42
2023/06/01 11:00:13;;;;;;;;;;;;;;;21.33;100.00;99389.53;4983433;28;19921;-42
2023/06/01 11:02:52;;;;;;;;;;;;;;;23.11;100.00;99361.50;4981338;28;19932;-42
2023/06/01 11:05:36;;;;;;;;;;;;;;;24.51;98.72;99337.03;4988511;28;19933;-42
2023/06/01 11:08:01;;;;;;;;;;;;;;;22.08;100.00;99398.09;4989762;28;19917;-42
2023/06/01 11:10:46;;;;;;;;;;;;;;;21.16;100.00;99424.75;4981338;28;19924;-42
2023/06/01 11:13:18;;;;;;;;;;;;;;;22.01;100.00;99402.13;4980931;28;19921;-42
2023/06/01 11:16:02;;;;;;;;;;;;;;;22.43;100.00;99389.41;4988014;28;19956;-42
2023/06/01 11:18:27;;;;;;;;;;;;;;;;;;4986179;28;19929;-42
2023/06/01 11:20:53;;;;;;;;;;;;;;;25.01;93.29;99321.31;4992422;28;19917;-42
2023/06/01 11:23:18;;;;;;;;;;;;;;;24.10;100.00;99370.25;4983010;28;20894;-43
2023/06/01 11:25:43;;;;;;;;;;;;;;;25.51;90.33;99299.41;4998169;28;19917;-42
2023/06/01 11:28:09;;;;;;;;;;;;;;;21.99;100.00;99404.03;4990483;28;19924;-42
2023/06/01 11:30:37;;;;;;;;;;;;;;;22.88;100.00;99379.00;4988491;28;20016;-43
2023/06/01 11:33:02;;;;;;;;;;;;;;;23.03;100.00;99389.31;5002265;28;19917;-42
2023/06/01 11:35:27;;;;;;;;;;;;;;;21.65;100.00;99409.06;4984288;28;19922;-43
2023/06/01 11:37:56;;;;;;;;;;;;;;;20.54;100.00;99448.97;4981911;28;19918;-44
2023/06/01 11:40:21;;;;;;;;;;;;;;;25.12;100.00;99340.66;4993353;28;19961;-42
2023/06/01 11:42:46;;;;;;;;;;;;;;;22.77;100.00;99379.00;4986705;28;19953;-42
2023/06/01 11:45:16;;;;;;;;;;;;;;;21.88;100.00;99401.34;4993192;28;19978;-42
2023/06/01 11:47:41;;;;;;;;;;;;;;;23.46;100.00;99362.28;4986702;28;20009;-42
2023/06/01 11:50:07;;;;;;;;;;;;;;;23.26;100.00;99369.13;4984358;28;20032;-42
2023/06/01 11:52:32;;;;;;;;;;;;;;;21.74;100.00;99420.69;4988326;28;19914;-42
2023/06/01 11:55:04;;;;;;;;;;;;;;;21.25;100.00;99418.88;4984054;28;19921;-42
2023/06/01 11:57:29;;;;;;;;;;;;;;;21.36;100.00;99432.06;4991623;28;19921;-42
2023/06/01 11:59:54;;;;;;;;;;;;;;;21.68;100.00;99427.19;4989606;28;19932;-42
2023/06/01 12:02:24;;;;;;;;;;;;;;;22.24;100.00;99402.25;4990126;28;19921;-42
2023/06/01 12:04:57;;;;;;;;;;;;;;;24.79;100.00;99330.25;4994241;28;19931;-42
2023/06/01 12:07:22;;;;;;;;;;;;;;;21.20;100.00;99437.50;4983753;28;20370;-42
2023/06/01 12:09:48;;;;;;;;;;;;;;;21.19;100.00;99430.63;4999556;28;20020;-42
2023/06/01 12:12:13;;;;;;;;;;;;;;;21.13;100.00;99444.13;4990370;28;19999;-42
2023/06/01 12:14:38;;;;;;;;;;;;;;;20.61;100.00;99455.50;4991809;28;20023;-42
2023/06/01 12:17:05;;;;;;;;;;;;;;;21.38;100.00;99442.44;4986272;28;20975;-42
2023/06/01 12:19:31;;;;;;;;;;;;;;;21.23;100.00;99410.28;4981288;28;19922;-44
2023/06/01 12:21:57;;;;;;;;;;;;;;;22.81;100.00;99369.06;4988354;28;19929;-42
2023/06/01 12:24:30;;;;;;;;;;;;;;;21.27;100.00;99422.22;4991997;28;20742;-42
2023/06/01 12:26:57;;;;;;;;;;;;;;;20.00;100.00;99453.28;4994346;28;19928;-43
2023/06/01 12:29:36;;;;;;;;;;;;;;;22.03;100.00;99415.09;4994704;28;19917;-42
2023/06/01 12:32:01;;;;;;;;;;;;;;;21.08;100.00;99417.41;4989416;28;20016;-42
2023/06/01 12:34:26;;;;;;;;;;;;;;;22.59;100.00;99375.16;4991351;28;19997;-42
2023/06/01 12:36:52;;;;;;;;;;;;;;;20.04;100.00;99467.81;4987408;28;20256;-42